Aérodrome :
LOGIN :

S'inscrire | Disclaimer

   EN    FR    IT 

 










Légende :    VFR   VFR Marginal   IFR   IFR Intensif   IFR Très Intensif
Visi : 
Plafond : 
>= 8 km
>= 3000ft
5 à 8 km
1000 à 3000 ft
1500m à 5 km
500 à 1000 ft
800 à 1500m
200 à 500 ft
< 800m
< 200 ft
Symboles :   Orages  Brouillard  Fortes neiges  Fortes précipitations  Vent > 20 kt
SIGMETs :   Divers  Orages  Givrage  Turbulence  Onde Orograph.  Cendres Volcan.







- Altitude de l'aérodrome : 1363 ft


ETIC - Grafenwohr Army Air Field

DERNIER METAR :
  • 172056Z AUTO 00000KT 9999 OVC003 03/03 A3023 RMK AO2 SLP259 T00310028 57003 $

METARs EXPIRÉS :
  • 171956Z AUTO 00000KT 9999 OVC004 03/03 A3023 RMK AO2 SLP259 T00310028 $
  • 171856Z AUTO 00000KT 9999 OVC004 03/03 A3023 RMK AO2 SLP259 T00300027 $
  • 171811Z AUTO 00000KT 9999 OVC005 03/03 A3024 RMK AO2 OVC V BKN SLP262 $

TAF AMD TAF ETIC
Valide du 17 à 19h jusqu'au 18 à 20h UTC


171928Z 1719/1820 28006KT 9999 OVC004 610509 QNH3014INS
BECMG 1806/1807 26006KT 9999 OVC010 610305 QNH3011INS
BECMG 1809/1810 27012KT 9999 SCT010 BKN030 610305 QNH3002INS
BECMG 1815/1816 27012G18KT 9999 SCT015 BKN030 610305 QNH2997INS TX06/1814Z TN01/1803Z
Pas de NOTAMs connus pour ce terrain.



MET'MAP, la Météo Aéronautique d'un coup d'oeil ! - Copyright ORBIFLY Décembre 2007 - Disclaimer

ORBIFLY MET'MAP TEAM :

Programmation & Développement : Alexandra Zaïnal
Conception & Développement : Baudouin d'Aumeries
Co-Programmation & Développement : Marc-Olivier Méhu
Soutien technique & logistique : Manuel Goepfert

Contact : metmap@orbifly.com




SOURCES & CREDITS :

   NOAA